Terminal Aerodrome Forecast
Issued by NWS Albany, NY

Home | Current Version | Previous Version | Text Only | Print | Product List | Glossary On
Versions: 1 2 3 4 5 6 7 8 9 10 11 12 13 14 15 16 17
000
FTUS41 KALY 260540
TAFPOU
TAF
KPOU 260540Z 2606/2706 20005KT P6SM SCT250
     FM261200 20008KT P6SM BKN120 BKN250
     FM261800 22010KT P6SM VCSH SCT060 BKN200
     FM270000 20006KT P6SM VCSH BKN060=

USA.gov is the U.S. government's official web portal to all federal, state and local government web resources and services.